Time;durP1;ratioP1;P1;durP2;ratioP2;P2;SDS_P1;SDS_P2;PMS_P1;PMS_P2;Temp;Humidity;BMP_temperature;BMP_pressure;BME280_temperature;BME280_humidity;BME280_pressure;Samples;Min_cycle;Max_cycle;Signal;HPM_P1;HPM_P2
2022/01/03 00:00:53;;;;;;;6.70;2.50;;;;;;;;;;5096890;28;20243;-68
2022/01/03 00:03:21;;;;;;;7.00;3.50;;;;;;;;;;5096729;28;20312;-68
2022/01/03 00:05:48;;;;;;;7.83;1.87;;;;;;;;;;5096726;28;20529;-68
2022/01/03 00:08:17;;;;;;;14.93;3.20;;;;;;;;;;5096891;28;20478;-67
2022/01/03 00:10:44;;;;;;;5.03;1.93;;;;;;;;;;5096302;28;20522;-68
2022/01/03 00:13:11;;;;;;;5.40;2.73;;;;;;;;;;5096684;28;20541;-68
2022/01/03 00:15:38;;;;;;;6.23;1.73;;;;;;;;;;5096905;28;20526;-69
2022/01/03 00:18:06;;;;;;;11.07;2.83;;;;;;;;;;5096119;28;20879;-68
2022/01/03 00:20:33;;;;;;;12.03;2.87;;;;;;;;;;5096605;28;20530;-68
2022/01/03 00:23:03;;;;;;;16.30;2.90;;;;;;;;;;5096725;28;20566;-68
2022/01/03 00:25:32;;;;;;;6.33;2.53;;;;;;;;;;5096370;28;20471;-67
2022/01/03 00:28:05;;;;;;;9.80;2.57;;;;;;;;;;5095997;28;20973;-68
2022/01/03 00:30:35;;;;;;;8.87;2.50;;;;;;;;;;5096494;28;20474;-68
2022/01/03 00:33:03;;;;;;;13.80;2.90;;;;;;;;;;5096640;28;20510;-67
2022/01/03 00:35:31;;;;;;;10.73;2.70;;;;;;;;;;5096171;28;20523;-68
2022/01/03 00:37:58;;;;;;;6.93;3.13;;;;;;;;;;5096166;28;20471;-68
2022/01/03 00:40:26;;;;;;;6.17;2.20;;;;;;;;;;5096107;28;20801;-68
2022/01/03 00:42:55;;;;;;;6.73;2.07;;;;;;;;;;5095305;28;20482;-69
2022/01/03 00:45:22;;;;;;;2.40;1.70;;;;;;;;;;5095754;28;20534;-68
2022/01/03 00:47:49;;;;;;;7.07;2.20;;;;;;;;;;5095979;28;20442;-67
2022/01/03 00:50:22;;;;;;;8.77;5.47;;;;;;;;;;5095830;28;20922;-67
2022/01/03 00:52:50;;;;;;;5.93;2.23;;;;;;;;;;5096404;28;20832;-68
2022/01/03 00:55:18;;;;;;;6.60;2.57;;;;;;;;;;5095543;28;20952;-68
2022/01/03 00:57:53;;;;;;;12.30;2.80;;;;;;;;;;5095767;28;20443;-68
2022/01/03 01:00:21;;;;;;;16.13;2.77;;;;;;;;;;5095453;28;20891;-68
2022/01/03 01:02:51;;;;;;;10.90;3.20;;;;;;;;;;5095644;28;20558;-68
2022/01/03 01:05:19;;;;;;;7.33;1.80;;;;;;;;;;5095610;28;20443;-67
2022/01/03 01:07:48;;;;;;;2.10;1.33;;;;;;;;;;5095535;28;20940;-67
2022/01/03 01:10:16;;;;;;;5.35;1.95;;;;;;;;;;5095262;28;20519;-67
2022/01/03 01:12:46;;;;;;;4.00;1.77;;;;;;;;;;5095388;28;20203;-66
2022/01/03 01:15:14;;;;;;;7.68;1.95;;;;;;;;;;5095711;28;20201;-67
2022/01/03 01:17:43;;;;;;;5.93;2.30;;;;;;;;;;5095699;28;20236;-66
2022/01/03 01:20:12;;;;;;;6.33;2.30;;;;;;;;;;5095353;28;20200;-67
2022/01/03 01:22:39;;;;;;;14.02;3.00;;;;;;;;;;5095293;28;20818;-67
2022/01/03 01:25:25;;;;;;;7.43;2.35;;;;;;;;;;5095213;28;20193;-67
2022/01/03 01:27:53;;;;;;;9.00;2.80;;;;;;;;;;5095496;28;20208;-67
2022/01/03 01:30:22;;;;;;;9.25;2.80;;;;;;;;;;5095449;28;20201;-67
2022/01/03 01:32:52;;;;;;;14.43;2.57;;;;;;;;;;5095300;28;20197;-69
2022/01/03 01:35:20;;;;;;;6.03;2.50;;;;;;;;;;5094724;28;20431;-68
2022/01/03 01:37:48;;;;;;;16.63;3.10;;;;;;;;;;5095356;28;20434;-68
2022/01/03 01:40:15;;;;;;;8.90;2.17;;;;;;;;;;5094824;28;20518;-68
2022/01/03 01:42:45;;;;;;;11.98;3.00;;;;;;;;;;5094679;28;20516;-68
2022/01/03 01:45:12;;;;;;;5.97;2.33;;;;;;;;;;5094874;28;20239;-69
2022/01/03 01:47:41;;;;;;;10.73;2.93;;;;;;;;;;5094510;28;20526;-68
2022/01/03 01:50:10;;;;;;;6.93;2.00;;;;;;;;;;5095274;28;20839;-68
2022/01/03 01:52:39;;;;;;;7.13;3.25;;;;;;;;;;5094717;28;20474;-68
2022/01/03 01:55:07;;;;;;;16.03;2.83;;;;;;;;;;5093710;28;20280;-68
2022/01/03 01:57:41;;;;;;;9.30;3.00;;;;;;;;;;5094616;28;20439;-69
2022/01/03 02:00:10;;;;;;;11.40;2.83;;;;;;;;;;5094975;28;20439;-68
2022/01/03 02:02:38;;;;;;;12.53;3.67;;;;;;;;;;5094601;28;20475;-68
2022/01/03 02:05:14;;;;;;;10.90;2.80;;;;;;;;;;5094528;28;20865;-68
2022/01/03 02:07:52;;;;;;;7.70;3.00;;;;;;;;;;5094551;28;20453;-68
2022/01/03 02:10:24;;;;;;;7.30;3.40;;;;;;;;;;5094185;28;21005;-68
2022/01/03 02:12:51;;;;;;;7.60;3.30;;;;;;;;;;5094072;28;20476;-69
2022/01/03 02:15:20;;;;;;;11.57;2.27;;;;;;;;;;5094512;28;20445;-69
2022/01/03 02:17:48;;;;;;;9.67;3.60;;;;;;;;;;5095331;28;20485;-68
2022/01/03 02:20:20;;;;;;;14.97;3.47;;;;;;;;;;5094386;28;20534;-68
2022/01/03 02:22:48;;;;;;;11.90;3.17;;;;;;;;;;5094265;28;20514;-69
2022/01/03 02:25:16;;;;;;;8.57;2.97;;;;;;;;;;5094235;28;20453;-69
2022/01/03 02:27:46;;;;;;;10.33;3.63;;;;;;;;;;5094385;28;20542;-68
2022/01/03 02:30:14;;;;;;;7.07;2.57;;;;;;;;;;5094046;28;20435;-68
2022/01/03 02:32:41;;;;;;;8.77;3.00;;;;;;;;;;5094153;28;20440;-68
2022/01/03 02:35:09;;;;;;;8.87;2.70;;;;;;;;;;5094196;28;20440;-68
2022/01/03 02:37:39;;;;;;;13.70;4.80;;;;;;;;;;5093953;28;20476;-68
2022/01/03 02:40:07;;;;;;;6.67;2.30;;;;;;;;;;5093512;28;20956;-67
2022/01/03 02:42:34;;;;;;;17.40;4.10;;;;;;;;;;5093816;28;20820;-67
2022/01/03 02:45:02;;;;;;;13.03;3.47;;;;;;;;;;5094475;28;20850;-67
2022/01/03 02:47:29;;;;;;;12.73;3.50;;;;;;;;;;5093512;28;20526;-67
2022/01/03 02:49:56;;;;;;;16.03;3.60;;;;;;;;;;5093461;28;20952;-67
2022/01/03 02:52:23;;;;;;;13.57;3.57;;;;;;;;;;5093734;28;20443;-68
2022/01/03 02:54:53;;;;;;;13.18;3.65;;;;;;;;;;5093758;28;20779;-67
2022/01/03 02:57:23;;;;;;;13.93;4.50;;;;;;;;;;5093414;28;20196;-68
2022/01/03 02:59:53;;;;;;;16.60;5.00;;;;;;;;;;5094066;28;20427;-68
2022/01/03 03:02:22;;;;;;;12.00;3.13;;;;;;;;;;5093509;28;20446;-68
2022/01/03 03:04:53;;;;;;;8.57;3.70;;;;;;;;;;5093028;28;21001;-67
2022/01/03 03:07:20;;;;;;;8.53;3.20;;;;;;;;;;5093229;28;20439;-67
2022/01/03 03:09:48;;;;;;;12.23;3.43;;;;;;;;;;5093742;28;20542;-68
2022/01/03 03:12:17;;;;;;;13.43;4.10;;;;;;;;;;5093795;28;20545;-68
2022/01/03 03:14:44;;;;;;;11.47;3.30;;;;;;;;;;5093080;28;20780;-67
2022/01/03 03:17:11;;;;;;;14.00;3.60;;;;;;;;;;5093452;28;20566;-67
2022/01/03 03:19:51;;;;;;;14.67;2.50;;;;;;;;;;5093472;28;20571;-68
2022/01/03 03:22:19;;;;;;;10.20;3.67;;;;;;;;;;5093243;28;20467;-68
2022/01/03 03:24:46;;;;;;;16.03;3.33;;;;;;;;;;5093580;28;20471;-67
2022/01/03 03:27:13;;;;;;;10.30;4.53;;;;;;;;;;5093110;28;20537;-67
2022/01/03 03:29:46;;;;;;;8.17;2.97;;;;;;;;;;5093066;28;20443;-68
2022/01/03 03:32:14;;;;;;;8.40;3.43;;;;;;;;;;5093303;28;20438;-68
2022/01/03 03:34:41;;;;;;;7.80;3.53;;;;;;;;;;5092958;28;20533;-68
2022/01/03 03:37:09;;;;;;;9.30;3.57;;;;;;;;;;5093267;28;20485;-68
2022/01/03 03:39:36;;;;;;;11.80;3.67;;;;;;;;;;5092969;28;20471;-68
2022/01/03 03:42:05;;;;;;;20.60;4.43;;;;;;;;;;5092942;28;20481;-68
2022/01/03 03:44:32;;;;;;;13.40;4.03;;;;;;;;;;5093269;28;20490;-68
2022/01/03 03:47:01;;;;;;;17.63;4.50;;;;;;;;;;5093577;28;20623;-69
2022/01/03 03:49:28;;;;;;;8.87;3.10;;;;;;;;;;5093401;28;20440;-68
2022/01/03 03:51:55;;;;;;;17.73;4.30;;;;;;;;;;5092864;28;20452;-68
2022/01/03 03:54:22;;;;;;;20.83;4.97;;;;;;;;;;5092841;28;20295;-68
2022/01/03 03:56:50;;;;;;;6.30;3.47;;;;;;;;;;5093562;28;20281;-68
2022/01/03 03:59:17;;;;;;;9.37;4.10;;;;;;;;;;5092718;28;20526;-68
2022/01/03 04:01:44;;;;;;;16.52;4.88;;;;;;;;;;5093273;28;20529;-68
2022/01/03 04:04:13;;;;;;;14.73;5.33;;;;;;;;;;5093786;28;20306;-68
2022/01/03 04:06:40;;;;;;;17.05;5.55;;;;;;;;;;5092719;28;20438;-68
2022/01/03 04:09:07;;;;;;;12.20;4.27;;;;;;;;;;5093001;28;20289;-68
2022/01/03 04:11:34;;;;;;;12.38;5.20;;;;;;;;;;5093374;28;20453;-68
2022/01/03 04:14:02;;;;;;;17.83;6.45;;;;;;;;;;5092948;28;20284;-68
2022/01/03 04:16:29;;;;;;;14.50;5.80;;;;;;;;;;5092665;28;20236;-68
2022/01/03 04:18:56;;;;;;;4.80;3.00;;;;;;;;;;5096932;28;20954;-68
2022/01/03 04:21:26;;;;;;;13.87;4.07;;;;;;;;;;5097102;28;20914;-68
2022/01/03 04:23:53;;;;;;;6.00;3.87;;;;;;;;;;5096413;28;20831;-68
2022/01/03 04:26:20;;;;;;;21.90;4.90;;;;;;;;;;5096400;28;20542;-68
2022/01/03 04:28:47;;;;;;;10.13;3.97;;;;;;;;;;5096383;28;20857;-68
2022/01/03 04:31:15;;;;;;;17.20;5.17;;;;;;;;;;5096380;28;20193;-68
2022/01/03 04:33:42;;;;;;;17.35;3.30;;;;;;;;;;5095977;28;20534;-68
2022/01/03 04:36:10;;;;;;;11.87;4.73;;;;;;;;;;5096489;28;20551;-67
2022/01/03 04:38:39;;;;;;;15.43;5.00;;;;;;;;;;5096121;28;20446;-67
2022/01/03 04:41:06;;;;;;;10.40;3.33;;;;;;;;;;5095984;28;20542;-67
2022/01/03 04:43:34;;;;;;;9.27;3.50;;;;;;;;;;5096044;28;20583;-67
2022/01/03 04:46:01;;;;;;;16.97;4.80;;;;;;;;;;5095674;28;20451;-67
2022/01/03 04:48:29;;;;;;;20.77;5.03;;;;;;;;;;5096036;28;20535;-67
2022/01/03 04:50:57;;;;;;;17.65;3.50;;;;;;;;;;5095553;28;20467;-70
2022/01/03 04:53:25;;;;;;;14.32;5.10;;;;;;;;;;5095557;28;20288;-67
2022/01/03 04:55:54;;;;;;;16.67;3.90;;;;;;;;;;5095895;28;20269;-68
2022/01/03 04:58:21;;;;;;;13.27;3.50;;;;;;;;;;5095473;28;20431;-68
2022/01/03 05:00:49;;;;;;;13.80;4.80;;;;;;;;;;5095838;28;20446;-67
2022/01/03 05:03:16;;;;;;;13.10;4.20;;;;;;;;;;5095635;28;20993;-66
2022/01/03 05:05:44;;;;;;;13.07;3.77;;;;;;;;;;5095949;28;20545;-66
2022/01/03 05:08:11;;;;;;;13.13;4.10;;;;;;;;;;5095337;28;20449;-66
2022/01/03 05:10:38;;;;;;;15.23;3.13;;;;;;;;;;5095760;28;20860;-66
2022/01/03 05:13:07;;;;;;;9.53;4.47;;;;;;;;;;5095305;28;20447;-66
2022/01/03 05:15:34;;;;;;;13.20;3.70;;;;;;;;;;5094677;28;20526;-66
2022/01/03 05:18:01;;;;;;;9.57;3.40;;;;;;;;;;5095458;28;20474;-67
2022/01/03 05:20:29;;;;;;;12.60;3.85;;;;;;;;;;5095428;28;20474;-67
2022/01/03 05:22:56;;;;;;;11.47;5.77;;;;;;;;;;5095197;28;20206;-66
2022/01/03 05:25:23;;;;;;;8.80;2.87;;;;;;;;;;5095334;28;20474;-66
2022/01/03 05:27:50;;;;;;;10.83;5.97;;;;;;;;;;5095214;28;20866;-67
2022/01/03 05:30:20;;;;;;;11.90;3.87;;;;;;;;;;5095376;28;20436;-66
2022/01/03 05:32:47;;;;;;;6.97;3.67;;;;;;;;;;5094852;28;20443;-66
2022/01/03 05:35:14;;;;;;;14.13;4.07;;;;;;;;;;5095179;28;20533;-66
2022/01/03 05:37:42;;;;;;;12.43;6.20;;;;;;;;;;5095534;28;20799;-67
2022/01/03 05:40:09;;;;;;;13.40;4.07;;;;;;;;;;5095274;28;20526;-67
2022/01/03 05:42:37;;;;;;;12.57;4.90;;;;;;;;;;5095074;28;20518;-67
2022/01/03 05:45:04;;;;;;;19.50;4.23;;;;;;;;;;5094315;28;20573;-67
2022/01/03 05:47:33;;;;;;;15.70;5.10;;;;;;;;;;5095380;28;20431;-67
2022/01/03 05:50:00;;;;;;;11.60;4.60;;;;;;;;;;5094601;28;20538;-66
2022/01/03 05:52:27;;;;;;;7.13;3.00;;;;;;;;;;5094749;28;20474;-66
2022/01/03 05:54:56;;;;;;;9.50;3.50;;;;;;;;;;5094323;28;20526;-66
2022/01/03 05:57:23;;;;;;;13.00;3.87;;;;;;;;;;5094555;28;20547;-67
2022/01/03 05:59:50;;;;;;;16.30;4.07;;;;;;;;;;5094637;28;20530;-66
2022/01/03 06:02:18;;;;;;;9.93;3.97;;;;;;;;;;5094227;28;20536;-66
2022/01/03 06:04:56;;;;;;;16.63;4.37;;;;;;;;;;5094082;28;20570;-65
2022/01/03 06:07:24;;;;;;;21.60;4.43;;;;;;;;;;5094160;28;20428;-66
2022/01/03 06:09:52;;;;;;;15.73;4.07;;;;;;;;;;5094614;28;20434;-66
2022/01/03 06:12:20;;;;;;;9.93;3.53;;;;;;;;;;5094004;28;20959;-65
2022/01/03 06:14:48;;;;;;;10.33;4.23;;;;;;;;;;5093758;28;20455;-65
2022/01/03 06:17:15;;;;;;;10.20;3.77;;;;;;;;;;5094060;28;21080;-66
2022/01/03 06:19:43;;;;;;;20.90;3.70;;;;;;;;;;5093885;28;21014;-66
2022/01/03 06:22:12;;;;;;;15.30;4.57;;;;;;;;;;5094669;28;20526;-66
2022/01/03 06:24:40;;;;;;;23.17;5.13;;;;;;;;;;5094266;28;20487;-68
2022/01/03 06:27:08;;;;;;;11.00;4.07;;;;;;;;;;5093799;28;20438;-66
2022/01/03 06:29:35;;;;;;;16.03;4.30;;;;;;;;;;5093967;28;20796;-66
2022/01/03 06:32:03;;;;;;;11.73;4.10;;;;;;;;;;5093681;28;20533;-66
2022/01/03 06:34:30;;;;;;;8.13;3.50;;;;;;;;;;5093634;28;20486;-67
2022/01/03 06:36:57;;;;;;;18.23;4.30;;;;;;;;;;5093595;28;20947;-66
2022/01/03 06:39:26;;;;;;;13.57;4.33;;;;;;;;;;5094071;28;20526;-66
2022/01/03 06:41:53;;;;;;;10.60;3.93;;;;;;;;;;5093342;28;20475;-66
2022/01/03 06:44:20;;;;;;;12.13;3.50;;;;;;;;;;5094460;28;20518;-66
2022/01/03 06:46:48;;;;;;;13.20;4.13;;;;;;;;;;5093512;28;20430;-66
2022/01/03 06:49:15;;;;;;;21.80;4.80;;;;;;;;;;5093466;28;20483;-66
2022/01/03 06:51:43;;;;;;;12.23;3.87;;;;;;;;;;5093447;28;20526;-66
2022/01/03 06:54:12;;;;;;;7.87;3.17;;;;;;;;;;5093737;28;20517;-67
2022/01/03 06:56:40;;;;;;;10.53;3.70;;;;;;;;;;5093250;28;20427;-67
2022/01/03 06:59:08;;;;;;;12.90;4.27;;;;;;;;;;5093520;28;20942;-66
2022/01/03 07:01:35;;;;;;;12.73;3.63;;;;;;;;;;5093202;28;20450;-66
2022/01/03 07:04:02;;;;;;;13.23;3.80;;;;;;;;;;5093547;28;20568;-66
2022/01/03 07:06:30;;;;;;;9.70;3.13;;;;;;;;;;5093588;28;20478;-66
2022/01/03 07:08:57;;;;;;;24.13;4.27;;;;;;;;;;5093585;28;20439;-66
2022/01/03 07:11:24;;;;;;;13.60;3.90;;;;;;;;;;5093618;28;20444;-66
2022/01/03 07:14:04;;;;;;;15.23;3.93;;;;;;;;;;5093569;28;20534;-66
2022/01/03 07:19:16;;;;;;;15.23;4.90;;;;;;;;;;5093187;28;20510;-66
2022/01/03 07:21:44;;;;;;;12.23;3.60;;;;;;;;;;5093450;28;20439;-66
2022/01/03 07:24:12;;;;;;;15.33;3.40;;;;;;;;;;5093639;28;20566;-66
2022/01/03 07:26:39;;;;;;;15.37;4.13;;;;;;;;;;5093606;28;20804;-66
2022/01/03 07:29:07;;;;;;;14.77;4.37;;;;;;;;;;5093852;28;20780;-66
2022/01/03 07:31:35;;;;;;;12.07;4.00;;;;;;;;;;5093096;28;20534;-66
2022/01/03 07:34:02;;;;;;;17.67;3.47;;;;;;;;;;5093367;28;20534;-67
2022/01/03 07:36:30;;;;;;;15.83;3.67;;;;;;;;;;5093076;28;20529;-68
2022/01/03 07:38:57;;;;;;;23.03;4.10;;;;;;;;;;5093547;28;20446;-67
2022/01/03 07:41:24;;;;;;;21.80;5.00;;;;;;;;;;5093202;28;20495;-66
2022/01/03 07:43:52;;;;;;;15.37;4.43;;;;;;;;;;5093346;28;20447;-66
2022/01/03 07:46:20;;;;;;;16.20;4.37;;;;;;;;;;5093140;28;20566;-66
2022/01/03 07:48:48;;;;;;;9.57;3.30;;;;;;;;;;5093938;28;20526;-66
2022/01/03 07:51:15;;;;;;;16.63;3.63;;;;;;;;;;5092821;28;20281;-67
2022/01/03 07:53:42;;;;;;;15.03;3.73;;;;;;;;;;5096111;28;20533;-66
2022/01/03 07:56:10;;;;;;;19.33;3.87;;;;;;;;;;5097050;28;20439;-66
2022/01/03 07:58:37;;;;;;;16.07;4.27;;;;;;;;;;5096839;28;20466;-66
2022/01/03 08:01:05;;;;;;;16.63;4.63;;;;;;;;;;5096855;28;20440;-67
2022/01/03 08:03:33;;;;;;;12.73;4.37;;;;;;;;;;5096823;28;20440;-66
2022/01/03 08:06:01;;;;;;;13.80;3.80;;;;;;;;;;5096818;28;20877;-66
2022/01/03 08:08:28;;;;;;;20.20;4.30;;;;;;;;;;5097030;28;20530;-67
2022/01/03 08:10:55;;;;;;;17.30;4.50;;;;;;;;;;5096728;28;20447;-66
2022/01/03 08:13:22;;;;;;;15.05;3.72;;;;;;;;;;5096777;28;20543;-67
2022/01/03 08:15:50;;;;;;;10.27;4.03;;;;;;;;;;5096593;28;20197;-66
2022/01/03 08:18:17;;;;;;;12.83;3.70;;;;;;;;;;5096879;28;20620;-67
2022/01/03 08:20:45;;;;;;;15.47;4.83;;;;;;;;;;5096675;28;20586;-66
2022/01/03 08:23:13;;;;;;;16.40;4.13;;;;;;;;;;5096437;28;20435;-66
2022/01/03 08:25:40;;;;;;;17.57;4.37;;;;;;;;;;5096025;28;20471;-67
2022/01/03 08:28:07;;;;;;;11.03;3.27;;;;;;;;;;5096102;28;20474;-67
2022/01/03 08:30:35;;;;;;;15.37;4.00;;;;;;;;;;5095971;28;20440;-66
2022/01/03 08:33:03;;;;;;;12.23;3.43;;;;;;;;;;5096299;28;20527;-66
2022/01/03 08:35:30;;;;;;;13.00;3.83;;;;;;;;;;5096818;28;20526;-66
2022/01/03 08:37:59;;;;;;;10.97;3.80;;;;;;;;;;5096098;28;20542;-66
2022/01/03 08:40:27;;;;;;;14.65;4.10;;;;;;;;;;5096317;28;20467;-66
2022/01/03 08:42:54;;;;;;;11.67;4.27;;;;;;;;;;5095759;28;20236;-66
2022/01/03 08:45:21;;;;;;;14.57;3.87;;;;;;;;;;5095639;28;20507;-66
2022/01/03 08:47:49;;;;;;;21.13;5.03;;;;;;;;;;5096347;28;20488;-66
2022/01/03 08:50:17;;;;;;;6.47;3.37;;;;;;;;;;5095929;28;20441;-66
2022/01/03 08:52:45;;;;;;;10.07;3.30;;;;;;;;;;5095579;28;20484;-66
2022/01/03 08:55:13;;;;;;;13.80;3.97;;;;;;;;;;5096409;28;20439;-66
2022/01/03 08:57:51;;;;;;;12.53;2.90;;;;;;;;;;5095697;28;20446;-66
2022/01/03 09:00:19;;;;;;;16.50;4.83;;;;;;;;;;5095492;28;20443;-66
2022/01/03 09:02:47;;;;;;;9.00;3.47;;;;;;;;;;5094921;28;20453;-65
2022/01/03 09:05:14;;;;;;;8.73;3.20;;;;;;;;;;5095347;28;20566;-66
2022/01/03 09:07:41;;;;;;;11.53;3.33;;;;;;;;;;5095873;28;20478;-66
2022/01/03 09:10:09;;;;;;;15.73;3.90;;;;;;;;;;5095525;28;20932;-66
2022/01/03 09:12:37;;;;;;;15.83;3.33;;;;;;;;;;5095591;28;20514;-66
2022/01/03 09:15:05;;;;;;;10.97;4.00;;;;;;;;;;5095199;28;20449;-66
2022/01/03 09:17:32;;;;;;;13.30;3.70;;;;;;;;;;5094745;28;20473;-66
2022/01/03 09:19:59;;;;;;;21.30;4.17;;;;;;;;;;5095579;28;20498;-66
2022/01/03 09:22:32;;;;;;;8.17;3.80;;;;;;;;;;5094909;28;20482;-66
2022/01/03 09:30:27;;;;;;;7.90;3.53;;;;;;;;;;5095241;28;20763;-66
2022/01/03 09:32:54;;;;;;;11.83;3.40;;;;;;;;;;5094873;28;20534;-66
2022/01/03 09:35:22;;;;;;;8.20;3.00;;;;;;;;;;5095462;28;20522;-66
2022/01/03 09:37:50;;;;;;;9.63;2.93;;;;;;;;;;5095287;28;20817;-67
2022/01/03 09:40:17;;;;;;;9.40;3.70;;;;;;;;;;5094899;28;20885;-66
2022/01/03 09:42:49;;;;;;;13.90;3.87;;;;;;;;;;5094475;28;20486;-66
2022/01/03 09:45:16;;;;;;;12.37;2.93;;;;;;;;;;5094422;28;20561;-66
2022/01/03 09:47:45;;;;;;;10.53;2.70;;;;;;;;;;5094672;28;20896;-66
2022/01/03 09:50:14;;;;;;;11.83;3.53;;;;;;;;;;5095145;28;20496;-66
2022/01/03 09:52:43;;;;;;;11.90;4.23;;;;;;;;;;5094384;28;20448;-66
2022/01/03 09:55:11;;;;;;;10.53;4.07;;;;;;;;;;5094823;28;20500;-66
2022/01/03 09:57:38;;;;;;;7.77;2.60;;;;;;;;;;5094296;28;20950;-67
2022/01/03 10:00:08;;;;;;;18.20;3.77;;;;;;;;;;5094268;28;20530;-66
2022/01/03 10:02:35;;;;;;;14.87;3.87;;;;;;;;;;5094536;28;20495;-66
2022/01/03 10:05:04;;;;;;;10.73;3.33;;;;;;;;;;5094123;28;21043;-66
2022/01/03 10:07:34;;;;;;;14.07;3.47;;;;;;;;;;5094527;28;20448;-66
2022/01/03 10:10:01;;;;;;;20.63;4.03;;;;;;;;;;5095004;28;20447;-66
2022/01/03 10:12:29;;;;;;;8.40;3.23;;;;;;;;;;5094378;28;20482;-66
2022/01/03 10:14:58;;;;;;;13.67;4.70;;;;;;;;;;5093142;28;20490;-66
2022/01/03 10:17:27;;;;;;;16.30;4.90;;;;;;;;;;5094468;28;20471;-66
2022/01/03 10:19:55;;;;;;;14.33;4.90;;;;;;;;;;5093840;28;20447;-66
2022/01/03 10:22:24;;;;;;;14.60;4.00;;;;;;;;;;5094124;28;20527;-66
2022/01/03 10:24:51;;;;;;;10.00;3.70;;;;;;;;;;5094014;28;20894;-67
2022/01/03 10:27:19;;;;;;;3.33;2.23;;;;;;;;;;5094183;28;20874;-66
2022/01/03 10:29:55;;;;;;;18.50;4.93;;;;;;;;;;5094061;28;20531;-67
2022/01/03 10:32:28;;;;;;;5.40;3.30;;;;;;;;;;5093731;28;20425;-66
2022/01/03 10:34:56;;;;;;;10.00;4.27;;;;;;;;;;5093775;28;20420;-67
2022/01/03 10:37:34;;;;;;;21.40;5.00;;;;;;;;;;5093560;28;20453;-66
2022/01/03 10:40:16;;;;;;;10.00;4.37;;;;;;;;;;5093980;28;20538;-66
2022/01/03 10:42:43;;;;;;;7.53;3.50;;;;;;;;;;5094112;28;20816;-67
2022/01/03 10:45:10;;;;;;;10.50;3.40;;;;;;;;;;5093402;28;21027;-67
2022/01/03 10:47:41;;;;;;;17.27;4.77;;;;;;;;;;5093483;28;20526;-67
2022/01/03 10:50:15;;;;;;;9.10;3.50;;;;;;;;;;5093536;28;20420;-67
2022/01/03 10:52:42;;;;;;;11.13;3.77;;;;;;;;;;5093655;28;20435;-67
2022/01/03 10:55:14;;;;;;;14.53;3.47;;;;;;;;;;5093644;28;20482;-66
2022/01/03 10:58:02;;;;;;;8.60;4.30;;;;;;;;;;5094154;28;20455;-66
2022/01/03 11:00:31;;;;;;;11.10;4.07;;;;;;;;;;5087121;28;20452;-66
2022/01/03 11:03:15;;;;;;;10.50;4.50;;;;;;;;;;5093581;28;20526;-66
2022/01/03 11:05:46;;;;;;;10.17;3.50;;;;;;;;;;5093878;28;20513;-67
2022/01/03 11:11:00;;;;;;;11.07;3.40;;;;;;;;;;5093342;28;20406;-67
2022/01/03 11:13:27;;;;;;;12.97;4.20;;;;;;;;;;5093351;28;20447;-66
2022/01/03 11:15:55;;;;;;;10.27;3.63;;;;;;;;;;5093266;28;20439;-66
2022/01/03 11:18:25;;;;;;;12.67;4.40;;;;;;;;;;5093994;28;20996;-66
2022/01/03 11:21:02;;;;;;;16.10;4.43;;;;;;;;;;5093427;28;20526;-66
2022/01/03 11:23:30;;;;;;;11.53;4.77;;;;;;;;;;5093145;28;20434;-67
2022/01/03 11:25:58;;;;;;;15.30;4.10;;;;;;;;;;5093859;28;20570;-67
2022/01/03 11:28:27;;;;;;;12.23;4.80;;;;;;;;;;5097221;28;20961;-66
2022/01/03 11:30:55;;;;;;;17.23;4.27;;;;;;;;;;5097725;28;20439;-66
2022/01/03 11:33:22;;;;;;;14.17;3.63;;;;;;;;;;5097071;28;20529;-67
2022/01/03 11:35:53;;;;;;;10.30;4.70;;;;;;;;;;5097420;28;20526;-67
2022/01/03 11:38:21;;;;;;;15.70;4.00;;;;;;;;;;5097518;28;20459;-66
2022/01/03 11:40:48;;;;;;;14.77;5.77;;;;;;;;;;5096930;28;20486;-66
2022/01/03 11:43:16;;;;;;;10.90;4.70;;;;;;;;;;5097207;28;20522;-67
2022/01/03 11:45:43;;;;;;;20.43;6.33;;;;;;;;;;5097039;28;20569;-68
2022/01/03 11:48:11;;;;;;;8.97;3.93;;;;;;;;;;5097095;28;20850;-67
2022/01/03 11:50:39;;;;;;;10.40;3.27;;;;;;;;;;5097662;28;20535;-67
2022/01/03 11:53:09;;;;;;;19.00;4.00;;;;;;;;;;5097054;28;20447;-67
2022/01/03 11:55:39;;;;;;;9.23;3.30;;;;;;;;;;5097038;28;20534;-67
2022/01/03 11:58:25;;;;;;;19.00;4.17;;;;;;;;;;5096953;28;20477;-68
2022/01/03 12:03:47;;;;;;;8.43;3.50;;;;;;;;;;5096642;28;20589;-66
2022/01/03 12:06:24;;;;;;;19.13;4.60;;;;;;;;;;5096374;28;20482;-67
2022/01/03 12:08:56;;;;;;;16.27;4.50;;;;;;;;;;5096865;28;20794;-67
2022/01/03 12:11:24;;;;;;;12.70;4.00;;;;;;;;;;5096839;28;20485;-67
2022/01/03 12:13:52;;;;;;;7.43;3.10;;;;;;;;;;5096430;28;20447;-68
2022/01/03 12:16:20;;;;;;;9.00;3.17;;;;;;;;;;5096248;28;20517;-66
2022/01/03 12:19:00;;;;;;;11.37;3.43;;;;;;;;;;5096520;28;20467;-66
2022/01/03 12:21:46;;;;;;;13.17;4.07;;;;;;;;;;5096483;28;20427;-66
2022/01/03 12:24:28;;;;;;;14.10;4.40;;;;;;;;;;5096115;28;20530;-67
2022/01/03 12:27:10;;;;;;;11.67;3.47;;;;;;;;;;5096508;28;20558;-67
2022/01/03 12:30:05;;;;;;;9.70;3.90;;;;;;;;;;5095847;28;20450;-67
2022/01/03 12:32:34;;;;;;;6.70;3.00;;;;;;;;;;5096297;28;20438;-66
2022/01/03 12:35:23;;;;;;;17.07;4.37;;;;;;;;;;5096390;28;20443;-66
2022/01/03 12:38:05;;;;;;;10.33;3.90;;;;;;;;;;5089625;28;20454;-67
2022/01/03 12:40:33;;;;;;;16.30;3.93;;;;;;;;;;5095628;28;20536;-66
2022/01/03 12:43:01;;;;;;;5.10;2.80;;;;;;;;;;5095760;28;20897;-66
2022/01/03 12:45:47;;;;;;;15.27;4.70;;;;;;;;;;5095913;28;20450;-67
2022/01/03 12:48:19;;;;;;;14.77;3.63;;;;;;;;;;5096107;28;20439;-66
2022/01/03 12:50:50;;;;;;;8.87;3.00;;;;;;;;;;5095851;28;20444;-66
2022/01/03 12:53:34;;;;;;;15.63;3.53;;;;;;;;;;5095640;28;20436;-67
2022/01/03 12:56:07;;;;;;;14.57;3.77;;;;;;;;;;5096151;28;20973;-68
2022/01/03 12:58:52;;;;;;;11.17;3.47;;;;;;;;;;5096574;28;20427;-66
2022/01/03 13:01:38;;;;;;;12.87;4.03;;;;;;;;;;5096040;28;20507;-66
2022/01/03 13:04:24;;;;;;;14.23;3.90;;;;;;;;;;5096674;28;20459;-66
2022/01/03 13:06:53;;;;;;;12.27;3.30;;;;;;;;;;5095291;28;20985;-66
2022/01/03 13:09:25;;;;;;;9.43;3.07;;;;;;;;;;5095281;28;20435;-66
2022/01/03 13:11:56;;;;;;;12.30;5.57;;;;;;;;;;5096026;28;20432;-67
2022/01/03 13:14:24;;;;;;;14.33;3.73;;;;;;;;;;5096120;28;20464;-68
2022/01/03 13:16:58;;;;;;;14.20;3.43;;;;;;;;;;5095396;28;20875;-70
2022/01/03 13:19:30;;;;;;;10.30;3.33;;;;;;;;;;5095750;28;20538;-69
2022/01/03 13:22:00;;;;;;;10.13;3.43;;;;;;;;;;5096203;28;20431;-70
2022/01/03 13:24:33;;;;;;;7.73;3.00;;;;;;;;;;5095035;28;20435;-70
2022/01/03 13:27:02;;;;;;;10.80;4.00;;;;;;;;;;5095196;28;20502;-69
2022/01/03 13:29:30;;;;;;;8.97;3.70;;;;;;;;;;5074841;28;20440;-70
2022/01/03 13:31:58;;;;;;;9.90;3.53;;;;;;;;;;5074801;28;20448;-70
2022/01/03 13:34:28;;;;;;;14.93;4.57;;;;;;;;;;5075167;28;20440;-70
2022/01/03 13:36:56;;;;;;;16.47;4.00;;;;;;;;;;5074821;28;20965;-70
2022/01/03 13:39:24;;;;;;;19.57;4.07;;;;;;;;;;5074794;28;20484;-70
2022/01/03 13:41:52;;;;;;;15.03;3.90;;;;;;;;;;5074761;28;20853;-70
2022/01/03 13:44:39;;;;;;;11.27;3.43;;;;;;;;;;5074260;28;20445;-70
2022/01/03 13:49:55;;;;;;;12.33;4.77;;;;;;;;;;5074492;28;20396;-70
2022/01/03 13:52:30;;;;;;;10.83;3.83;;;;;;;;;;5074816;28;20531;-70
2022/01/03 13:55:01;;;;;;;12.83;3.70;;;;;;;;;;5074217;28;21011;-70
2022/01/03 13:57:29;;;;;;;14.97;3.83;;;;;;;;;;5078381;28;20444;-70
2022/01/03 14:00:04;;;;;;;9.40;3.77;;;;;;;;;;5095056;28;20463;-71
2022/01/03 14:02:31;;;;;;;11.50;3.43;;;;;;;;;;5095325;28;20454;-70
2022/01/03 14:05:00;;;;;;;14.60;3.97;;;;;;;;;;5094221;28;20447;-69
2022/01/03 14:07:29;;;;;;;9.20;3.37;;;;;;;;;;5094132;28;20471;-70
2022/01/03 14:09:57;;;;;;;10.87;3.33;;;;;;;;;;5094741;28;20466;-70
2022/01/03 14:12:25;;;;;;;10.73;3.37;;;;;;;;;;5094497;28;20485;-70
2022/01/03 14:14:54;;;;;;;13.83;3.43;;;;;;;;;;5093784;28;20542;-70
2022/01/03 14:17:22;;;;;;;11.30;3.37;;;;;;;;;;5094182;28;20562;-70
2022/01/03 14:20:00;;;;;;;12.97;4.20;;;;;;;;;;5094144;28;20432;-69
2022/01/03 14:22:32;;;;;;;9.30;3.33;;;;;;;;;;5093842;28;20434;-70
2022/01/03 14:25:00;;;;;;;16.87;3.13;;;;;;;;;;5093787;28;20434;-69
2022/01/03 14:27:31;;;;;;;11.83;3.33;;;;;;;;;;5093415;28;20475;-70
2022/01/03 14:30:12;;;;;;;11.30;4.00;;;;;;;;;;5094138;28;20479;-70
2022/01/03 14:32:39;;;;;;;8.73;3.30;;;;;;;;;;5094107;28;20783;-69
2022/01/03 14:35:09;;;;;;;8.27;3.23;;;;;;;;;;5094002;28;20527;-70
2022/01/03 14:37:36;;;;;;;7.17;2.47;;;;;;;;;;5094130;28;20532;-70
2022/01/03 14:40:05;;;;;;;8.63;3.03;;;;;;;;;;5093907;28;20511;-71
2022/01/03 14:42:34;;;;;;;12.80;3.63;;;;;;;;;;5093808;28;20443;-71
2022/01/03 14:45:09;;;;;;;11.37;4.20;;;;;;;;;;5094606;28;20851;-70
2022/01/03 14:47:37;;;;;;;9.97;3.10;;;;;;;;;;5094046;28;20467;-70
2022/01/03 14:50:06;;;;;;;7.43;3.50;;;;;;;;;;5094245;28;20525;-70
2022/01/03 14:52:35;;;;;;;8.67;3.80;;;;;;;;;;5093434;28;20926;-70
2022/01/03 14:55:03;;;;;;;13.03;3.07;;;;;;;;;;5093717;28;20530;-70
2022/01/03 14:57:31;;;;;;;15.90;4.77;;;;;;;;;;5093685;28;20505;-70
2022/01/03 15:00:00;;;;;;;6.77;2.80;;;;;;;;;;5093482;28;20956;-70
2022/01/03 15:02:27;;;;;;;9.20;3.13;;;;;;;;;;5092896;28;20926;-69